Airfield :
LOGIN :

Register | Disclaimer

   EN    FR    IT 

 










Legend :    VFR   Marginal VFR   IFR   Intensive IFR   Very Intensive IFR
Visi :
Ceiling :
>= 8 km
>= 3000ft
5 to 8 km
1000 to 3000 ft
1500m to 5 km
500 to 1000 ft
800 to 1500m
200 to 500 ft
< 800m
< 200 ft
Symbols :   Thunderstorms  Fog  Heavy snow  Heavy precipitations  Wind > 20 kt
SIGMETs :     Misc.  Thunderstorms  Icing  Turbulence  Mountain Waves  Volcanic Ashes







- Airport Elevation : 177 ft
- IATA code : BRI


LIBD - Palese Macchie Bari

CURRENT METAR :
  • 240850Z 36007KT 340V040 CAVOK 23/10 Q1017

EXPIRED METARs :
  • 240820Z 35006KT 320V020 CAVOK 24/12 Q1017
  • 240750Z 35007KT 320V030 CAVOK 23/11 Q1017
  • 240720Z 36004KT 310V030 CAVOK 23/12 Q1017
  • 240650Z 35005KT 310V030 CAVOK 22/11 Q1017

TAF TAF LIBD
Valid from the 24 at 06:00 until the 25 at 06:00 UTC


240500Z 2406/2506 VRB05KT CAVOK
BECMG 2408/2410 03012KT
BECMG 2417/2419 VRB05KT
No reported NOTAMs for that airfield.



MET'MAP, your aeronautical weather chart ! - Copyright ORBIFLY December 2007 - Disclaimer

ORBIFLY MET'MAP TEAM :

Programming & Development : Alexandra Zaïnal
Concept & Development : Baudouin d'Aumeries
Co-Development & Prog : Marc-Olivier Méhu
Technical & hardware support : Manuel Goepfert

Contact : metmap@orbifly.com




SOURCES & CREDITS :

   NOAA